Terminal Aerodrome Forecast
Issued by NWS

Home | Current Version | Previous Version | Graphics & Text | Print | Product List | Glossary On
Versions: 1 2 3 4 5 6 7 8 9 10 11 12 13 14 15 16 17 18 19 20 21
000
FTUS43 KGRB 282300 RRA
TAFATW
TAF
KATW 282343Z 2900/2924 16005KT 6SM -SN BR BKN020 OVC035
      TEMPO 2901/2905 4SM -PLSN BR BKN018
     FM290500 17006KT 3SM BR BKN015 OVC090
      TEMPO 2905/2909 -FZDZ
     FM291600 18008KT 5SM HZ BKN018
     FM292000 20009KT P6SM SCT020=

USA.gov is the U.S. government's official web portal to all federal, state and local government web resources and services.